sensor_id;sensor_type;location;lat;lon;timestamp;pressure;altitude;pressure_sealevel;temperature;humidity
25560;BME280;13450;49.374;8.584;2023-06-22T00:01:03;100422.53;;;23.35;100.00
25560;BME280;13450;49.374;8.584;2023-06-22T00:03:31;100416.00;;;23.36;100.00
25560;BME280;13450;49.374;8.584;2023-06-22T00:05:56;100418.72;;;23.36;100.00
25560;BME280;13450;49.374;8.584;2023-06-22T00:08:22;100428.00;;;23.35;100.00
25560;BME280;13450;49.374;8.584;2023-06-22T00:10:47;100427.44;;;23.28;100.00
25560;BME280;13450;49.374;8.584;2023-06-22T00:13:15;100430.72;;;23.30;100.00
25560;BME280;13450;49.374;8.584;2023-06-22T00:15:41;100436.16;;;23.30;100.00
25560;BME280;13450;49.374;8.584;2023-06-22T00:18:08;100439.16;;;23.29;100.00
25560;BME280;13450;49.374;8.584;2023-06-22T00:20:34;100438.91;;;23.30;100.00
25560;BME280;13450;49.374;8.584;2023-06-22T00:23:05;100433.97;;;23.32;100.00
25560;BME280;13450;49.374;8.584;2023-06-22T00:25:35;100439.44;;;23.32;100.00
25560;BME280;13450;49.374;8.584;2023-06-22T00:28:02;100460.22;;;23.33;100.00
25560;BME280;13450;49.374;8.584;2023-06-22T00:30:27;100461.59;;;23.36;100.00
25560;BME280;13450;49.374;8.584;2023-06-22T00:32:52;100474.97;;;23.37;100.00
25560;BME280;13450;49.374;8.584;2023-06-22T00:35:18;100485.34;;;23.41;100.00
25560;BME280;13450;49.374;8.584;2023-06-22T00:37:43;100501.44;;;23.37;100.00
25560;BME280;13450;49.374;8.584;2023-06-22T00:40:11;100544.28;;;23.36;100.00
25560;BME280;13450;49.374;8.584;2023-06-22T00:42:40;100604.28;;;23.26;100.00
25560;BME280;13450;49.374;8.584;2023-06-22T00:45:06;100679.25;;;23.08;100.00
25560;BME280;13450;49.374;8.584;2023-06-22T00:47:34;100731.47;;;22.89;100.00
25560;BME280;13450;49.374;8.584;2023-06-22T00:49:59;100750.72;;;22.72;100.00
25560;BME280;13450;49.374;8.584;2023-06-22T00:52:26;100756.59;;;22.58;100.00
25560;BME280;13450;49.374;8.584;2023-06-22T00:54:54;100706.06;;;22.51;100.00
25560;BME280;13450;49.374;8.584;2023-06-22T00:57:22;100625.66;;;22.53;100.00
25560;BME280;13450;49.374;8.584;2023-06-22T00:59:53;100479.53;;;22.47;100.00
25560;BME280;13450;49.374;8.584;2023-06-22T01:02:18;100391.13;;;22.32;100.00
25560;BME280;13450;49.374;8.584;2023-06-22T01:04:48;100398.66;;;22.15;100.00
25560;BME280;13450;49.374;8.584;2023-06-22T01:07:35;100396.88;;;21.88;100.00
25560;BME280;13450;49.374;8.584;2023-06-22T01:10:12;100365.16;;;21.71;100.00
25560;BME280;13450;49.374;8.584;2023-06-22T01:12:43;100373.59;;;21.69;100.00
25560;BME280;13450;49.374;8.584;2023-06-22T01:15:37;100418.16;;;21.63;100.00
25560;BME280;13450;49.374;8.584;2023-06-22T01:18:05;100492.41;;;21.53;100.00
25560;BME280;13450;49.374;8.584;2023-06-22T01:20:34;100547.31;;;21.45;100.00
25560;BME280;13450;49.374;8.584;2023-06-22T01:23:27;100570.63;;;21.36;100.00
25560;BME280;13450;49.374;8.584;2023-06-22T01:26:08;100555.31;;;21.29;100.00
25560;BME280;13450;49.374;8.584;2023-06-22T01:31:15;100523.66;;;21.23;100.00
25560;BME280;13450;49.374;8.584;2023-06-22T01:33:43;100519.25;;;21.17;100.00
25560;BME280;13450;49.374;8.584;2023-06-22T01:36:10;100524.63;;;21.12;100.00
25560;BME280;13450;49.374;8.584;2023-06-22T01:38:37;100530.00;;;21.07;100.00
25560;BME280;13450;49.374;8.584;2023-06-22T01:41:06;100528.34;;;21.06;100.00
25560;BME280;13450;49.374;8.584;2023-06-22T01:43:31;100531.66;;;21.08;100.00
25560;BME280;13450;49.374;8.584;2023-06-22T01:46:00;100519.63;;;21.03;100.00
25560;BME280;13450;49.374;8.584;2023-06-22T01:48:26;100516.41;;;21.07;100.00
25560;BME280;13450;49.374;8.584;2023-06-22T01:50:52;100519.75;;;21.14;100.00
25560;BME280;13450;49.374;8.584;2023-06-22T01:53:23;100505.06;;;21.15;100.00
25560;BME280;13450;49.374;8.584;2023-06-22T01:55:49;100498.00;;;21.14;100.00
25560;BME280;13450;49.374;8.584;2023-06-22T01:58:15;100494.78;;;21.17;100.00
25560;BME280;13450;49.374;8.584;2023-06-22T02:00:49;100499.63;;;21.15;100.00
25560;BME280;13450;49.374;8.584;2023-06-22T02:03:19;100500.97;;;21.12;100.00
25560;BME280;13450;49.374;8.584;2023-06-22T02:05:50;100512.72;;;21.18;100.00
25560;BME280;13450;49.374;8.584;2023-06-22T02:08:23;100509.72;;;21.14;100.00
25560;BME280;13450;49.374;8.584;2023-06-22T02:10:51;100510.50;;;21.15;100.00
25560;BME280;13450;49.374;8.584;2023-06-22T02:13:17;100503.94;;;21.11;100.00
25560;BME280;13450;49.374;8.584;2023-06-22T02:15:44;100505.00;;;21.10;100.00
25560;BME280;13450;49.374;8.584;2023-06-22T02:18:10;100504.22;;;21.09;100.00
25560;BME280;13450;49.374;8.584;2023-06-22T02:20:39;100503.38;;;21.09;100.00
25560;BME280;13450;49.374;8.584;2023-06-22T02:23:05;100504.75;;;21.11;100.00
25560;BME280;13450;49.374;8.584;2023-06-22T02:25:31;100498.25;;;21.12;100.00
25560;BME280;13450;49.374;8.584;2023-06-22T02:27:57;100502.28;;;21.10;100.00
25560;BME280;13450;49.374;8.584;2023-06-22T02:30:22;100509.91;;;21.08;100.00
25560;BME280;13450;49.374;8.584;2023-06-22T02:32:47;100504.66;;;21.01;100.00
25560;BME280;13450;49.374;8.584;2023-06-22T02:35:13;100496.94;;;20.93;100.00
25560;BME280;13450;49.374;8.584;2023-06-22T02:37:38;100504.50;;;20.90;100.00
25560;BME280;13450;49.374;8.584;2023-06-22T02:40:08;100500.91;;;20.85;100.00
25560;BME280;13450;49.374;8.584;2023-06-22T02:42:38;100500.75;;;20.74;100.00
25560;BME280;13450;49.374;8.584;2023-06-22T02:45:05;100493.91;;;20.72;100.00
25560;BME280;13450;49.374;8.584;2023-06-22T02:47:30;100482.81;;;20.73;100.00
25560;BME280;13450;49.374;8.584;2023-06-22T02:49:55;100488.22;;;20.73;100.00
25560;BME280;13450;49.374;8.584;2023-06-22T02:52:21;100475.91;;;20.65;100.00
25560;BME280;13450;49.374;8.584;2023-06-22T02:54:49;100489.25;;;20.67;100.00
25560;BME280;13450;49.374;8.584;2023-06-22T02:57:14;100484.50;;;20.57;100.00
25560;BME280;13450;49.374;8.584;2023-06-22T02:59:40;100477.59;;;20.49;100.00
25560;BME280;13450;49.374;8.584;2023-06-22T03:02:07;100465.09;;;20.48;100.00
25560;BME280;13450;49.374;8.584;2023-06-22T03:04:32;100474.31;;;20.47;100.00
25560;BME280;13450;49.374;8.584;2023-06-22T03:07:00;100473.81;;;20.50;100.00
25560;BME280;13450;49.374;8.584;2023-06-22T03:09:26;100476.28;;;20.52;100.00
25560;BME280;13450;49.374;8.584;2023-06-22T03:11:53;100482.50;;;20.52;100.00
25560;BME280;13450;49.374;8.584;2023-06-22T03:14:21;100474.94;;;20.55;100.00
25560;BME280;13450;49.374;8.584;2023-06-22T03:16:46;100471.16;;;20.56;100.00
25560;BME280;13450;49.374;8.584;2023-06-22T03:19:12;100452.91;;;20.51;100.00
25560;BME280;13450;49.374;8.584;2023-06-22T03:21:38;100442.34;;;20.55;100.00
25560;BME280;13450;49.374;8.584;2023-06-22T03:24:06;100443.91;;;20.50;100.00
25560;BME280;13450;49.374;8.584;2023-06-22T03:26:32;100440.88;;;20.47;100.00
25560;BME280;13450;49.374;8.584;2023-06-22T03:28:57;100449.03;;;20.47;100.00
25560;BME280;13450;49.374;8.584;2023-06-22T03:31:23;100449.78;;;20.42;100.00
25560;BME280;13450;49.374;8.584;2023-06-22T03:33:53;100451.34;;;20.38;100.00
25560;BME280;13450;49.374;8.584;2023-06-22T03:36:21;100463.94;;;20.44;100.00
25560;BME280;13450;49.374;8.584;2023-06-22T03:38:48;100465.59;;;20.45;100.00
25560;BME280;13450;49.374;8.584;2023-06-22T03:41:16;100447.13;;;20.47;100.00
25560;BME280;13450;49.374;8.584;2023-06-22T03:43:44;100467.88;;;20.54;100.00
25560;BME280;13450;49.374;8.584;2023-06-22T03:46:09;100455.94;;;20.55;100.00
25560;BME280;13450;49.374;8.584;2023-06-22T03:48:34;100449.41;;;20.56;100.00
25560;BME280;13450;49.374;8.584;2023-06-22T03:51:00;100453.03;;;20.61;100.00
25560;BME280;13450;49.374;8.584;2023-06-22T03:53:28;100445.44;;;20.63;100.00
25560;BME280;13450;49.374;8.584;2023-06-22T03:55:57;100453.09;;;20.67;100.00
25560;BME280;13450;49.374;8.584;2023-06-22T03:58:25;100449.03;;;20.69;100.00
25560;BME280;13450;49.374;8.584;2023-06-22T04:00:52;100449.53;;;20.66;100.00
25560;BME280;13450;49.374;8.584;2023-06-22T04:03:18;100459.41;;;20.72;100.00
25560;BME280;13450;49.374;8.584;2023-06-22T04:05:46;100458.56;;;20.72;100.00
25560;BME280;13450;49.374;8.584;2023-06-22T04:08:13;100442.03;;;20.73;100.00
25560;BME280;13450;49.374;8.584;2023-06-22T04:10:39;100447.22;;;20.75;100.00
25560;BME280;13450;49.374;8.584;2023-06-22T04:13:04;100442.91;;;20.79;100.00
25560;BME280;13450;49.374;8.584;2023-06-22T04:15:29;100450.47;;;20.77;100.00
25560;BME280;13450;49.374;8.584;2023-06-22T04:17:55;100450.81;;;20.81;100.00
25560;BME280;13450;49.374;8.584;2023-06-22T04:20:21;100447.31;;;20.85;100.00
25560;BME280;13450;49.374;8.584;2023-06-22T04:22:51;100436.81;;;20.89;100.00
25560;BME280;13450;49.374;8.584;2023-06-22T04:25:17;100433.00;;;20.90;100.00
25560;BME280;13450;49.374;8.584;2023-06-22T04:27:42;100430.34;;;20.95;100.00
25560;BME280;13450;49.374;8.584;2023-06-22T04:30:08;100440.13;;;20.96;100.00
25560;BME280;13450;49.374;8.584;2023-06-22T04:32:34;100439.38;;;21.01;100.00
25560;BME280;13450;49.374;8.584;2023-06-22T04:35:02;100433.16;;;21.06;100.00
25560;BME280;13450;49.374;8.584;2023-06-22T04:37:27;100424.25;;;21.10;100.00
25560;BME280;13450;49.374;8.584;2023-06-22T04:39:52;100421.31;;;21.17;100.00
25560;BME280;13450;49.374;8.584;2023-06-22T04:42:18;100427.06;;;21.21;100.00
25560;BME280;13450;49.374;8.584;2023-06-22T04:44:43;100428.41;;;21.18;100.00
25560;BME280;13450;49.374;8.584;2023-06-22T04:47:08;100427.25;;;21.14;100.00
25560;BME280;13450;49.374;8.584;2023-06-22T04:49:35;100425.69;;;21.18;100.00
25560;BME280;13450;49.374;8.584;2023-06-22T04:52:07;100430.63;;;21.21;100.00
25560;BME280;13450;49.374;8.584;2023-06-22T04:54:33;100423.03;;;21.28;100.00
25560;BME280;13450;49.374;8.584;2023-06-22T04:57:03;100423.16;;;21.39;100.00
25560;BME280;13450;49.374;8.584;2023-06-22T04:59:29;100419.69;;;21.49;100.00
25560;BME280;13450;49.374;8.584;2023-06-22T05:02:00;100414.59;;;21.58;100.00
25560;BME280;13450;49.374;8.584;2023-06-22T05:04:26;100412.50;;;21.70;100.00
25560;BME280;13450;49.374;8.584;2023-06-22T05:06:53;100414.81;;;21.84;100.00
25560;BME280;13450;49.374;8.584;2023-06-22T05:09:19;100406.72;;;21.94;100.00
25560;BME280;13450;49.374;8.584;2023-06-22T05:11:46;100412.81;;;22.06;100.00
25560;BME280;13450;49.374;8.584;2023-06-22T05:14:11;100406.31;;;22.18;100.00
25560;BME280;13450;49.374;8.584;2023-06-22T05:16:37;100406.34;;;22.28;100.00
25560;BME280;13450;49.374;8.584;2023-06-22T05:19:03;100390.34;;;22.37;100.00
25560;BME280;13450;49.374;8.584;2023-06-22T05:21:29;100398.00;;;22.45;100.00
25560;BME280;13450;49.374;8.584;2023-06-22T05:23:55;100386.34;;;22.55;100.00
25560;BME280;13450;49.374;8.584;2023-06-22T05:26:25;100392.38;;;22.68;100.00
25560;BME280;13450;49.374;8.584;2023-06-22T05:28:51;100388.03;;;22.77;100.00
25560;BME280;13450;49.374;8.584;2023-06-22T05:31:19;100384.25;;;22.89;100.00
25560;BME280;13450;49.374;8.584;2023-06-22T05:33:54;100374.72;;;23.02;100.00
25560;BME280;13450;49.374;8.584;2023-06-22T05:36:21;100374.47;;;23.08;100.00
25560;BME280;13450;49.374;8.584;2023-06-22T05:38:50;100376.38;;;23.18;100.00
25560;BME280;13450;49.374;8.584;2023-06-22T05:41:15;100369.56;;;23.26;100.00
25560;BME280;13450;49.374;8.584;2023-06-22T05:43:41;100382.69;;;23.34;100.00
25560;BME280;13450;49.374;8.584;2023-06-22T05:46:06;100375.59;;;23.44;100.00
25560;BME280;13450;49.374;8.584;2023-06-22T05:48:31;100374.22;;;23.46;100.00
25560;BME280;13450;49.374;8.584;2023-06-22T05:50:57;100387.06;;;23.51;100.00
25560;BME280;13450;49.374;8.584;2023-06-22T05:53:23;100384.84;;;23.63;100.00
25560;BME280;13450;49.374;8.584;2023-06-22T05:55:48;100369.84;;;23.71;100.00
25560;BME280;13450;49.374;8.584;2023-06-22T05:58:16;100370.66;;;23.82;100.00
25560;BME280;13450;49.374;8.584;2023-06-22T06:00:50;100366.53;;;23.90;100.00
25560;BME280;13450;49.374;8.584;2023-06-22T06:03:16;100362.38;;;24.03;100.00
25560;BME280;13450;49.374;8.584;2023-06-22T06:05:42;100369.78;;;24.13;100.00
25560;BME280;13450;49.374;8.584;2023-06-22T06:08:08;100368.09;;;24.22;100.00
25560;BME280;13450;49.374;8.584;2023-06-22T06:10:34;100370.53;;;24.29;100.00
25560;BME280;13450;49.374;8.584;2023-06-22T06:13:00;100377.09;;;24.33;100.00
25560;BME280;13450;49.374;8.584;2023-06-22T06:15:30;100388.00;;;24.38;100.00
25560;BME280;13450;49.374;8.584;2023-06-22T06:17:55;100394.00;;;24.46;100.00
25560;BME280;13450;49.374;8.584;2023-06-22T06:20:23;100367.69;;;24.55;100.00
25560;BME280;13450;49.374;8.584;2023-06-22T06:22:49;100356.72;;;24.60;100.00
25560;BME280;13450;49.374;8.584;2023-06-22T06:25:15;100350.94;;;24.67;100.00
25560;BME280;13450;49.374;8.584;2023-06-22T06:27:49;100354.16;;;24.74;100.00
25560;BME280;13450;49.374;8.584;2023-06-22T06:30:18;100359.03;;;24.82;100.00
25560;BME280;13450;49.374;8.584;2023-06-22T06:32:44;100362.06;;;24.86;100.00
25560;BME280;13450;49.374;8.584;2023-06-22T06:35:11;100368.13;;;24.78;100.00
25560;BME280;13450;49.374;8.584;2023-06-22T06:37:38;100381.19;;;24.81;100.00
25560;BME280;13450;49.374;8.584;2023-06-22T06:40:08;100374.66;;;24.82;100.00
25560;BME280;13450;49.374;8.584;2023-06-22T06:42:53;100366.91;;;24.94;100.00
25560;BME280;13450;49.374;8.584;2023-06-22T06:45:21;100366.63;;;24.96;100.00
25560;BME280;13450;49.374;8.584;2023-06-22T06:47:48;100367.19;;;24.98;100.00
25560;BME280;13450;49.374;8.584;2023-06-22T06:50:13;100365.22;;;25.04;100.00
25560;BME280;13450;49.374;8.584;2023-06-22T06:52:38;100354.25;;;25.09;100.00
25560;BME280;13450;49.374;8.584;2023-06-22T06:55:06;100350.38;;;25.15;100.00
25560;BME280;13450;49.374;8.584;2023-06-22T06:57:39;100350.53;;;25.29;100.00
25560;BME280;13450;49.374;8.584;2023-06-22T07:00:06;100354.50;;;25.42;100.00
25560;BME280;13450;49.374;8.584;2023-06-22T07:02:37;100344.56;;;25.52;100.00
25560;BME280;13450;49.374;8.584;2023-06-22T07:05:03;100352.69;;;25.62;100.00
25560;BME280;13450;49.374;8.584;2023-06-22T07:07:28;100348.28;;;25.66;100.00
25560;BME280;13450;49.374;8.584;2023-06-22T07:09:54;100350.94;;;25.77;100.00
25560;BME280;13450;49.374;8.584;2023-06-22T07:12:19;100343.16;;;25.84;100.00
25560;BME280;13450;49.374;8.584;2023-06-22T07:14:44;100339.56;;;25.89;100.00
25560;BME280;13450;49.374;8.584;2023-06-22T07:17:10;100335.94;;;25.93;100.00
25560;BME280;13450;49.374;8.584;2023-06-22T07:19:35;100340.84;;;25.96;100.00
25560;BME280;13450;49.374;8.584;2023-06-22T07:22:03;100338.34;;;26.00;100.00
25560;BME280;13450;49.374;8.584;2023-06-22T07:24:30;100327.09;;;26.02;100.00
25560;BME280;13450;49.374;8.584;2023-06-22T07:26:57;100328.72;;;26.03;100.00
25560;BME280;13450;49.374;8.584;2023-06-22T07:29:24;100327.63;;;26.04;100.00
25560;BME280;13450;49.374;8.584;2023-06-22T07:31:50;100329.19;;;26.10;100.00
25560;BME280;13450;49.374;8.584;2023-06-22T07:34:16;100332.06;;;26.19;100.00
25560;BME280;13450;49.374;8.584;2023-06-22T07:36:43;100321.81;;;26.30;100.00
25560;BME280;13450;49.374;8.584;2023-06-22T07:39:08;100299.59;;;26.31;100.00
25560;BME280;13450;49.374;8.584;2023-06-22T07:41:33;100317.75;;;26.27;100.00
25560;BME280;13450;49.374;8.584;2023-06-22T07:43:58;100356.13;;;26.27;100.00
25560;BME280;13450;49.374;8.584;2023-06-22T07:46:28;100348.50;;;26.43;100.00
25560;BME280;13450;49.374;8.584;2023-06-22T07:48:55;100316.16;;;26.45;100.00
25560;BME280;13450;49.374;8.584;2023-06-22T07:51:21;100339.78;;;26.41;100.00
25560;BME280;13450;49.374;8.584;2023-06-22T07:53:46;100353.28;;;26.57;100.00
25560;BME280;13450;49.374;8.584;2023-06-22T07:56:11;100346.63;;;26.63;100.00
25560;BME280;13450;49.374;8.584;2023-06-22T07:58:37;100337.84;;;26.61;100.00
25560;BME280;13450;49.374;8.584;2023-06-22T08:01:02;100328.53;;;26.62;100.00
25560;BME280;13450;49.374;8.584;2023-06-22T08:03:30;100321.03;;;26.68;100.00
25560;BME280;13450;49.374;8.584;2023-06-22T08:05:58;100319.03;;;26.73;100.00
25560;BME280;13450;49.374;8.584;2023-06-22T08:08:23;100319.47;;;26.81;100.00
25560;BME280;13450;49.374;8.584;2023-06-22T08:10:49;100326.88;;;26.80;100.00
25560;BME280;13450;49.374;8.584;2023-06-22T08:13:14;100328.38;;;26.92;100.00
25560;BME280;13450;49.374;8.584;2023-06-22T08:15:40;100323.69;;;27.11;100.00
25560;BME280;13450;49.374;8.584;2023-06-22T08:18:05;100331.13;;;27.25;100.00
25560;BME280;13450;49.374;8.584;2023-06-22T08:20:30;100333.28;;;27.28;100.00
25560;BME280;13450;49.374;8.584;2023-06-22T08:22:56;100324.63;;;27.21;100.00
25560;BME280;13450;49.374;8.584;2023-06-22T08:25:23;100308.78;;;27.32;100.00
25560;BME280;13450;49.374;8.584;2023-06-22T08:27:48;100311.16;;;27.52;100.00
25560;BME280;13450;49.374;8.584;2023-06-22T08:30:14;100319.63;;;27.70;100.00
25560;BME280;13450;49.374;8.584;2023-06-22T08:32:42;100317.72;;;27.85;100.00
25560;BME280;13450;49.374;8.584;2023-06-22T08:35:07;100313.03;;;27.85;100.00
25560;BME280;13450;49.374;8.584;2023-06-22T08:37:34;100306.63;;;27.90;100.00
25560;BME280;13450;49.374;8.584;2023-06-22T08:40:01;100306.91;;;27.88;100.00
25560;BME280;13450;49.374;8.584;2023-06-22T08:42:29;100311.91;;;28.00;100.00
25560;BME280;13450;49.374;8.584;2023-06-22T08:44:55;100310.16;;;28.04;100.00
25560;BME280;13450;49.374;8.584;2023-06-22T08:47:23;100315.44;;;28.15;100.00
25560;BME280;13450;49.374;8.584;2023-06-22T08:49:49;100309.34;;;28.18;100.00
25560;BME280;13450;49.374;8.584;2023-06-22T08:52:14;100309.47;;;28.27;100.00
25560;BME280;13450;49.374;8.584;2023-06-22T08:54:40;100315.66;;;28.32;100.00
25560;BME280;13450;49.374;8.584;2023-06-22T08:57:06;100313.00;;;28.41;100.00
25560;BME280;13450;49.374;8.584;2023-06-22T08:59:31;100329.03;;;28.62;100.00
25560;BME280;13450;49.374;8.584;2023-06-22T09:01:57;100331.91;;;28.80;100.00
25560;BME280;13450;49.374;8.584;2023-06-22T09:04:22;100338.53;;;28.93;100.00
25560;BME280;13450;49.374;8.584;2023-06-22T09:06:50;100341.28;;;29.16;100.00
25560;BME280;13450;49.374;8.584;2023-06-22T09:09:17;100349.00;;;29.36;100.00
25560;BME280;13450;49.374;8.584;2023-06-22T09:11:42;100347.69;;;29.57;100.00
25560;BME280;13450;49.374;8.584;2023-06-22T09:14:08;100334.56;;;29.54;100.00
25560;BME280;13450;49.374;8.584;2023-06-22T09:16:34;100327.19;;;29.49;100.00
25560;BME280;13450;49.374;8.584;2023-06-22T09:18:59;100312.53;;;29.62;100.00
25560;BME280;13450;49.374;8.584;2023-06-22T09:21:24;100301.44;;;29.85;100.00
25560;BME280;13450;49.374;8.584;2023-06-22T09:23:50;100296.03;;;30.12;100.00
25560;BME280;13450;49.374;8.584;2023-06-22T09:26:17;100289.81;;;30.06;100.00
25560;BME280;13450;49.374;8.584;2023-06-22T09:28:43;100279.13;;;30.13;100.00
25560;BME280;13450;49.374;8.584;2023-06-22T09:31:08;100281.69;;;30.01;100.00
25560;BME280;13450;49.374;8.584;2023-06-22T09:33:33;100269.03;;;30.00;100.00
25560;BME280;13450;49.374;8.584;2023-06-22T09:35:58;100270.63;;;29.83;100.00
25560;BME280;13450;49.374;8.584;2023-06-22T09:38:24;100257.41;;;29.62;100.00
25560;BME280;13450;49.374;8.584;2023-06-22T09:40:49;100245.38;;;29.49;100.00
25560;BME280;13450;49.374;8.584;2023-06-22T09:43:17;100255.19;;;29.42;100.00
25560;BME280;13450;49.374;8.584;2023-06-22T09:45:44;100267.03;;;29.42;100.00
25560;BME280;13450;49.374;8.584;2023-06-22T09:48:09;100241.31;;;29.47;100.00
25560;BME280;13450;49.374;8.584;2023-06-22T09:50:35;100239.59;;;29.60;100.00
25560;BME280;13450;49.374;8.584;2023-06-22T09:53:01;100238.34;;;29.84;100.00
25560;BME280;13450;49.374;8.584;2023-06-22T09:55:27;100230.13;;;30.10;100.00
25560;BME280;13450;49.374;8.584;2023-06-22T09:57:52;100228.22;;;30.37;100.00
25560;BME280;13450;49.374;8.584;2023-06-22T10:00:17;100243.59;;;30.56;97.36
25560;BME280;13450;49.374;8.584;2023-06-22T10:02:46;100242.81;;;30.82;99.66
25560;BME280;13450;49.374;8.584;2023-06-22T10:05:11;100239.59;;;31.19;97.48
25560;BME280;13450;49.374;8.584;2023-06-22T10:07:37;100222.44;;;31.43;97.10
25560;BME280;13450;49.374;8.584;2023-06-22T10:10:10;100212.47;;;31.51;90.89
25560;BME280;13450;49.374;8.584;2023-06-22T10:12:35;100207.44;;;31.53;89.90
25560;BME280;13450;49.374;8.584;2023-06-22T10:15:01;100201.31;;;31.69;92.50
25560;BME280;13450;49.374;8.584;2023-06-22T10:17:28;100197.69;;;31.77;89.89
25560;BME280;13450;49.374;8.584;2023-06-22T10:19:54;100204.66;;;31.83;93.77
25560;BME280;13450;49.374;8.584;2023-06-22T10:22:21;100197.25;;;31.75;90.95
25560;BME280;13450;49.374;8.584;2023-06-22T10:24:46;100203.63;;;31.67;92.62
25560;BME280;13450;49.374;8.584;2023-06-22T10:27:14;100184.06;;;31.51;91.09
25560;BME280;13450;49.374;8.584;2023-06-22T10:29:39;100185.09;;;31.37;97.44
25560;BME280;13450;49.374;8.584;2023-06-22T10:32:05;100187.59;;;31.21;95.10
25560;BME280;13450;49.374;8.584;2023-06-22T10:34:31;100186.06;;;30.93;95.71
25560;BME280;13450;49.374;8.584;2023-06-22T10:36:56;100181.28;;;30.73;94.00
25560;BME280;13450;49.374;8.584;2023-06-22T10:39:21;100168.41;;;30.77;94.98
25560;BME280;13450;49.374;8.584;2023-06-22T10:41:46;100182.84;;;30.91;95.69
25560;BME280;13450;49.374;8.584;2023-06-22T10:44:12;100180.09;;;31.22;93.66
25560;BME280;13450;49.374;8.584;2023-06-22T10:46:39;100173.13;;;31.54;95.72
25560;BME280;13450;49.374;8.584;2023-06-22T10:49:05;100163.16;;;31.62;91.14
25560;BME280;13450;49.374;8.584;2023-06-22T10:51:30;100164.69;;;31.81;92.49
25560;BME280;13450;49.374;8.584;2023-06-22T10:53:56;100162.25;;;32.01;89.05
25560;BME280;13450;49.374;8.584;2023-06-22T10:56:21;100160.75;;;32.25;86.41
25560;BME280;13450;49.374;8.584;2023-06-22T10:58:47;100161.09;;;32.44;83.54
25560;BME280;13450;49.374;8.584;2023-06-22T11:01:14;100162.25;;;32.56;84.56
25560;BME280;13450;49.374;8.584;2023-06-22T11:03:42;100160.16;;;32.53;79.61
25560;BME280;13450;49.374;8.584;2023-06-22T11:06:07;100142.78;;;32.77;80.04
25560;BME280;13450;49.374;8.584;2023-06-22T11:08:32;100146.41;;;33.03;76.95
25560;BME280;13450;49.374;8.584;2023-06-22T11:10:58;100141.59;;;32.99;79.46
25560;BME280;13450;49.374;8.584;2023-06-22T11:13:23;100148.94;;;33.20;78.95
25560;BME280;13450;49.374;8.584;2023-06-22T11:15:50;100142.94;;;33.56;77.71
25560;BME280;13450;49.374;8.584;2023-06-22T11:18:18;100133.78;;;33.68;77.70
25560;BME280;13450;49.374;8.584;2023-06-22T11:20:45;100140.19;;;34.25;72.30
25560;BME280;13450;49.374;8.584;2023-06-22T11:23:12;100150.06;;;34.39;69.65
25560;BME280;13450;49.374;8.584;2023-06-22T11:25:37;100142.56;;;34.11;73.94
25560;BME280;13450;49.374;8.584;2023-06-22T11:28:03;100145.44;;;33.73;75.41
25560;BME280;13450;49.374;8.584;2023-06-22T11:30:29;100140.41;;;33.63;73.39
25560;BME280;13450;49.374;8.584;2023-06-22T11:32:56;100138.72;;;33.74;73.26
25560;BME280;13450;49.374;8.584;2023-06-22T11:35:21;100138.16;;;34.38;70.25
25560;BME280;13450;49.374;8.584;2023-06-22T11:37:47;100138.41;;;35.46;63.62
25560;BME280;13450;49.374;8.584;2023-06-22T11:40:12;100131.75;;;36.49;57.29
25560;BME280;13450;49.374;8.584;2023-06-22T11:42:37;100132.72;;;36.61;57.40
25560;BME280;13450;49.374;8.584;2023-06-22T11:45:05;100133.94;;;35.97;58.66
25560;BME280;13450;49.374;8.584;2023-06-22T11:47:32;100132.69;;;35.39;63.77
25560;BME280;13450;49.374;8.584;2023-06-22T11:50:00;100138.19;;;34.87;65.39
25560;BME280;13450;49.374;8.584;2023-06-22T11:52:25;100143.94;;;34.62;66.19
25560;BME280;13450;49.374;8.584;2023-06-22T11:54:52;100131.25;;;34.61;65.33
25560;BME280;13450;49.374;8.584;2023-06-22T11:57:17;100119.13;;;34.69;68.63
25560;BME280;13450;49.374;8.584;2023-06-22T11:59:45;100123.00;;;34.36;67.11
25560;BME280;13450;49.374;8.584;2023-06-22T12:02:10;100126.34;;;33.84;64.91
25560;BME280;13450;49.374;8.584;2023-06-22T12:04:37;100124.00;;;33.58;69.25
25560;BME280;13450;49.374;8.584;2023-06-22T12:07:03;100117.97;;;33.43;72.18
25560;BME280;13450;49.374;8.584;2023-06-22T12:09:28;100128.34;;;33.71;71.15
25560;BME280;13450;49.374;8.584;2023-06-22T12:11:54;100131.66;;;34.18;66.51
25560;BME280;13450;49.374;8.584;2023-06-22T12:14:19;100127.28;;;34.78;61.72
25560;BME280;13450;49.374;8.584;2023-06-22T12:16:44;100122.38;;;35.39;64.84
25560;BME280;13450;49.374;8.584;2023-06-22T12:19:10;100124.41;;;35.22;65.15
25560;BME280;13450;49.374;8.584;2023-06-22T12:21:37;100127.09;;;34.70;66.48
25560;BME280;13450;49.374;8.584;2023-06-22T12:24:02;100127.34;;;35.85;60.74
25560;BME280;13450;49.374;8.584;2023-06-22T12:26:28;100127.50;;;36.79;55.10
25560;BME280;13450;49.374;8.584;2023-06-22T12:28:55;100137.16;;;38.01;54.12
25560;BME280;13450;49.374;8.584;2023-06-22T12:31:21;100131.16;;;39.38;45.32
25560;BME280;13450;49.374;8.584;2023-06-22T12:33:46;100128.25;;;40.01;46.65
25560;BME280;13450;49.374;8.584;2023-06-22T12:36:11;100129.16;;;40.49;41.50
25560;BME280;13450;49.374;8.584;2023-06-22T12:38:36;100124.34;;;40.79;42.19
25560;BME280;13450;49.374;8.584;2023-06-22T12:41:02;100127.16;;;40.68;40.24
25560;BME280;13450;49.374;8.584;2023-06-22T12:43:27;100126.72;;;41.24;41.83